Sauk Centre, MN

8:35 PM CST on December 07, 2016 (GMT -0600)
Sauk Centre

Weather History for KD39 - October, 2012

Change the Weather History Date:

Sunday, October 28, 2012

  Actual Average (KGHW) Record (KGHW)
Temperature  
Mean Temperature 37 °F -  
Max Temperature 42 °F 54 °F 73 °F (1966)
Min Temperature 32 °F 31 °F 11 °F (1952)
Degree Days  
Heating Degree Days 28    
Moisture  
Dew Point 29 °F    
Average Humidity 78    
Maximum Humidity 93    
Minimum Humidity 61    
Precipitation  
Precipitation 0.00 in - - ()
Sea Level Pressure  
Sea Level Pressure 30.25 in    
Wind  
Wind Speed 6 mph (SE)    
Max Wind Speed 14 mph    
Max Gust Speed 18 mph    
Visibility 10 miles    
Events Snow    
Averages and records for this station are not official NWS values.
T = Trace of Precipitation, MM = Missing Value Source: NWS Daily Summary

Daily Weather History Graph

Daily Weather History Graph

Search for Another Location

Airport or City:

Trip Planner

Search our weather history database for the weather conditions in past years. The results will help you decide how hot, cold, wet, or windy it might be!

Date:

Astronomy

Oct. 28, 2012 Rise Set
Actual Time 7:54 AM CDT 6:11 PM CDT
Civil Twilight 7:23 AM CDT 6:42 PM CDT
Nautical Twilight 6:49 AM CDT 7:17 PM CDT
Astronomical Twilight 6:14 AM CDT 7:51 PM CDT
Moon 5:29 PM CDT (10/28) 6:47 AM CDT (10/28)
Length of Visible Light 11h 18m
Length of Day
10h 16m
Waxing Gibbous, 99% of the Moon is Illuminated
Oct 28
Waxing Gibbous
Oct 29
Full
Nov 6
Last Quarter
Nov 13
New
Nov 20
First Quarter

Hourly Weather History & Observations

Time (CDT) Temp. Windchill Dew Point Humidity Pressure Visibility Wind Dir Wind Speed Gust Speed Precip Events Conditions
12:15 AM 32.0 °F 28.7 °F 26.6 °F 80% 30.28 in 10.0 mi SSE 3.5 mph - N/A   Overcast
12:35 AM 32.0 °F 26.4 °F 26.6 °F 80% 30.28 in 10.0 mi SSE 5.8 mph - N/A   Overcast
12:55 AM 32.0 °F 26.4 °F 26.6 °F 80% 30.28 in 10.0 mi SSE 5.8 mph - N/A   Overcast
1:15 AM 32.0 °F 25.6 °F 26.6 °F 80% 30.28 in 10.0 mi SSE 6.9 mph - N/A   Overcast
1:35 AM 32.0 °F 25.6 °F 26.6 °F 80% 30.27 in 10.0 mi SSE 6.9 mph - N/A   Overcast
1:55 AM 32.0 °F 26.4 °F 26.6 °F 80% 30.28 in 10.0 mi SSE 5.8 mph - N/A   Overcast
2:15 AM 32.0 °F 26.4 °F 26.6 °F 80% 30.27 in 10.0 mi SSE 5.8 mph - N/A   Overcast
2:35 AM 32.0 °F 26.4 °F 26.6 °F 80% 30.27 in 10.0 mi SSE 5.8 mph - N/A   Overcast
2:55 AM 32.0 °F 26.4 °F 26.6 °F 80% 30.27 in 10.0 mi SSE 5.8 mph - N/A   Overcast
3:15 AM 32.0 °F 27.5 °F 26.6 °F 80% 30.27 in 10.0 mi SSE 4.6 mph - N/A   Overcast
3:35 AM 32.0 °F 27.5 °F 26.6 °F 80% 30.27 in 10.0 mi SSE 4.6 mph - N/A   Overcast
3:55 AM 32.0 °F 26.4 °F 26.6 °F 80% 30.26 in 10.0 mi SSE 5.8 mph - N/A   Overcast
4:15 AM 32.0 °F 24.8 °F 26.6 °F 80% 30.26 in 10.0 mi South 8.1 mph - N/A   Overcast
4:35 AM 32.0 °F 25.6 °F 26.6 °F 80% 30.26 in 10.0 mi South 6.9 mph - N/A   Overcast
4:55 AM 32.0 °F 27.5 °F 26.6 °F 80% 30.26 in 7.0 mi SSE 4.6 mph - N/A Snow Light Snow
5:15 AM 32.0 °F - 26.6 °F 80% 30.26 in 10.0 mi Calm Calm - N/A   Overcast
5:35 AM 32.0 °F - 28.4 °F 87% 30.26 in 7.0 mi Calm Calm - N/A Snow Light Snow
5:55 AM 32.0 °F 27.5 °F 26.6 °F 80% 30.27 in 10.0 mi SSE 4.6 mph - N/A   Overcast
6:15 AM 32.0 °F 28.7 °F 28.4 °F 87% 30.27 in 5.0 mi SE 3.5 mph - N/A Snow Light Snow
6:35 AM 32.0 °F 28.7 °F 28.4 °F 87% 30.27 in 10.0 mi SE 3.5 mph - N/A Snow Light Snow
6:55 AM 32.0 °F 27.5 °F 28.4 °F 87% 30.27 in 5.0 mi SE 4.6 mph - N/A Snow Light Snow
7:15 AM 32.0 °F 27.5 °F 28.4 °F 87% 30.27 in 7.0 mi SSE 4.6 mph - N/A Snow Light Snow
7:35 AM 32.0 °F - 28.4 °F 87% 30.27 in 10.0 mi Calm Calm - N/A   Overcast
7:55 AM 32.0 °F 24.2 °F 28.4 °F 87% 30.28 in 10.0 mi South 9.2 mph - N/A   Overcast
8:15 AM 32.0 °F 27.5 °F 30.2 °F 93% 30.28 in 10.0 mi South 4.6 mph - N/A   Overcast
8:35 AM 32.0 °F 27.5 °F 30.2 °F 93% 30.28 in 10.0 mi SSE 4.6 mph - N/A   Overcast
8:55 AM 32.0 °F 26.4 °F 30.2 °F 93% 30.29 in 10.0 mi SE 5.8 mph - N/A   Overcast
9:15 AM 32.0 °F 26.4 °F 30.2 °F 93% 30.29 in 5.0 mi SSE 5.8 mph - N/A Snow Light Snow
9:35 AM 32.0 °F 26.4 °F 30.2 °F 93% 30.28 in 2.5 mi SSE 5.8 mph - N/A Snow Light Snow
9:55 AM 32.0 °F 26.4 °F 30.2 °F 93% 30.29 in 5.0 mi South 5.8 mph - N/A Snow Light Snow
10:15 AM 32.0 °F 25.6 °F 30.2 °F 93% 30.28 in 10.0 mi South 6.9 mph - N/A   Overcast
10:35 AM 33.8 °F 26.4 °F 30.2 °F 87% 30.28 in 10.0 mi South 9.2 mph - N/A   Overcast
10:55 AM 33.8 °F 26.4 °F 30.2 °F 87% 30.27 in 10.0 mi South 9.2 mph - N/A   Overcast
11:15 AM 35.6 °F 27.5 °F 30.2 °F 81% 30.27 in 10.0 mi South 11.5 mph - N/A   Overcast
11:35 AM 35.6 °F 27.5 °F 30.2 °F 81% 30.27 in 10.0 mi South 11.5 mph - N/A   Overcast
11:55 AM 35.6 °F 27.5 °F 30.2 °F 81% 30.26 in 10.0 mi South 11.5 mph - N/A   Overcast
12:15 PM 37.4 °F 30.3 °F 30.2 °F 75% 30.26 in 10.0 mi SSE 10.4 mph - N/A   Overcast
12:35 PM 37.4 °F 30.8 °F 30.2 °F 75% 30.26 in 10.0 mi SSE 9.2 mph - N/A   Overcast
12:55 PM 37.4 °F 31.4 °F 30.2 °F 75% 30.26 in 10.0 mi SSE 8.1 mph - N/A   Overcast
1:15 PM 39.2 °F 33.0 °F 28.4 °F 65% 30.25 in 10.0 mi South 9.2 mph - N/A   Overcast
1:35 PM 41.0 °F 35.8 °F 28.4 °F 61% 30.25 in 10.0 mi SSE 8.1 mph - N/A   Overcast
1:55 PM 41.0 °F 35.8 °F 28.4 °F 61% 30.25 in 10.0 mi SSE 8.1 mph - N/A   Overcast
2:15 PM 41.0 °F 34.7 °F 30.2 °F 65% 30.24 in 10.0 mi SSE 10.4 mph - N/A   Overcast
2:35 PM 41.0 °F 35.8 °F 30.2 °F 65% 30.24 in 10.0 mi South 8.1 mph - N/A   Overcast
2:55 PM 42.8 °F 35.8 °F 30.2 °F 61% 30.23 in 10.0 mi SSE 13.8 mph 18.4 mph N/A   Overcast
3:15 PM 41.0 °F 34.3 °F 30.2 °F 65% 30.23 in 10.0 mi SE 11.5 mph - N/A   Overcast
3:35 PM 41.0 °F 35.8 °F 30.2 °F 65% 30.23 in 10.0 mi SE 8.1 mph - N/A   Overcast
3:55 PM 41.0 °F 35.8 °F 30.2 °F 65% 30.22 in 10.0 mi SE 8.1 mph - N/A   Overcast
4:15 PM 42.8 °F 36.6 °F 30.2 °F 61% 30.22 in 10.0 mi SE 11.5 mph - N/A   Overcast
4:35 PM 42.8 °F 36.6 °F 30.2 °F 61% 30.22 in 10.0 mi South 11.5 mph - N/A   Overcast
4:55 PM 41.0 °F 34.7 °F 30.2 °F 65% 30.23 in 10.0 mi SE 10.4 mph - N/A   Overcast
5:15 PM 41.0 °F 35.8 °F 30.2 °F 65% 30.22 in 10.0 mi SE 8.1 mph - N/A   Overcast
5:35 PM 41.0 °F 35.2 °F 32.0 °F 70% 30.22 in 10.0 mi SE 9.2 mph - N/A   Overcast
5:55 PM 41.0 °F 35.2 °F 30.2 °F 65% 30.22 in 10.0 mi SE 9.2 mph - N/A   Overcast
6:15 PM 41.0 °F 35.8 °F 30.2 °F 65% 30.22 in 10.0 mi ESE 8.1 mph - N/A   Overcast
6:35 PM 39.2 °F 33.6 °F 30.2 °F 70% 30.22 in 10.0 mi ESE 8.1 mph - N/A   Overcast
6:55 PM 39.2 °F 33.6 °F 30.2 °F 70% 30.23 in 10.0 mi ESE 8.1 mph - N/A   Overcast
7:15 PM 39.2 °F 33.6 °F 30.2 °F 70% 30.23 in 10.0 mi ESE 8.1 mph - N/A   Overcast
7:35 PM 37.4 °F 31.4 °F 30.2 °F 75% 30.23 in 10.0 mi ESE 8.1 mph - N/A   Overcast
8:15 PM 35.6 °F 29.2 °F 30.2 °F 81% 30.23 in 10.0 mi ESE 8.1 mph - N/A   Overcast
8:35 PM 35.6 °F 28.6 °F 30.2 °F 81% 30.23 in 10.0 mi ESE 9.2 mph - N/A   Overcast
8:55 PM 35.6 °F 28.6 °F 30.2 °F 81% 30.23 in 10.0 mi ESE 9.2 mph - N/A   Overcast
9:15 PM 35.6 °F 29.2 °F 28.4 °F 75% 30.23 in 10.0 mi ESE 8.1 mph - N/A   Overcast
9:35 PM 35.6 °F 29.2 °F 28.4 °F 75% 30.23 in 10.0 mi ESE 8.1 mph - N/A   Overcast
9:55 PM 33.8 °F 27.0 °F 28.4 °F 81% 30.23 in 10.0 mi ESE 8.1 mph - N/A   Mostly Cloudy
10:15 PM 33.8 °F 27.0 °F 28.4 °F 81% 30.24 in 10.0 mi ESE 8.1 mph - N/A   Mostly Cloudy
10:35 PM 33.8 °F 27.7 °F 28.4 °F 81% 30.24 in 10.0 mi ESE 6.9 mph - N/A   Mostly Cloudy
10:55 PM 33.8 °F 27.7 °F 28.4 °F 81% 30.24 in 10.0 mi ESE 6.9 mph - N/A   Overcast
11:15 PM 33.8 °F 27.7 °F 28.4 °F 81% 30.23 in 10.0 mi ESE 6.9 mph - N/A   Overcast
11:55 PM 33.8 °F 27.7 °F 28.4 °F 81% 30.24 in 10.0 mi ESE 6.9 mph - N/A   Mostly Cloudy